createdAt,value
2023-12-21T00:01:34.933Z,2.50
2023-12-21T00:04:04.076Z,2.79
2023-12-21T00:06:32.144Z,2.71
2023-12-21T00:09:01.512Z,2.59
2023-12-21T00:11:29.556Z,2.50
2023-12-21T00:13:57.518Z,2.53
2023-12-21T00:16:25.525Z,2.41
2023-12-21T00:18:53.596Z,2.59
2023-12-21T00:21:21.658Z,2.57
2023-12-21T00:23:49.554Z,2.44
2023-12-21T00:26:19.017Z,2.42
2023-12-21T00:28:47.014Z,2.67
2023-12-21T00:31:15.227Z,2.57
2023-12-21T00:33:43.254Z,2.52
2023-12-21T00:36:18.007Z,2.56
2023-12-21T00:38:45.951Z,2.88
2023-12-21T00:41:13.926Z,2.66
2023-12-21T00:43:43.201Z,2.75
2023-12-21T00:46:11.187Z,2.56
2023-12-21T00:48:39.183Z,2.45
2023-12-21T00:51:08.433Z,2.41
2023-12-21T00:53:36.314Z,2.17
2023-12-21T00:56:04.296Z,2.25
2023-12-21T00:58:32.283Z,2.13
2023-12-21T01:01:01.742Z,2.05
2023-12-21T01:03:29.888Z,2.15
2023-12-21T01:05:57.982Z,2.02
2023-12-21T01:08:25.940Z,2.35
2023-12-21T01:10:53.901Z,2.07
2023-12-21T01:13:21.866Z,2.19
2023-12-21T01:15:49.776Z,2.07
2023-12-21T01:18:19.338Z,2.20
2023-12-21T01:20:50.155Z,2.26
2023-12-21T01:23:18.776Z,2.20
2023-12-21T01:25:46.786Z,2.11
2023-12-21T01:28:14.724Z,2.11
2023-12-21T01:30:42.773Z,2.10
2023-12-21T01:33:10.855Z,2.05
2023-12-21T01:35:40.291Z,2.24
2023-12-21T01:38:08.192Z,2.07
2023-12-21T01:40:36.243Z,2.19
2023-12-21T01:43:04.368Z,2.09
2023-12-21T01:45:32.722Z,1.90
2023-12-21T01:48:01.103Z,2.05
2023-12-21T01:50:29.223Z,2.05
2023-12-21T01:53:01.727Z,2.12
2023-12-21T01:55:30.051Z,1.89
2023-12-21T01:57:59.743Z,1.96
2023-12-21T02:00:27.842Z,1.96
2023-12-21T02:02:56.158Z,1.96
2023-12-21T02:05:24.276Z,1.91
2023-12-21T02:07:52.387Z,1.99
2023-12-21T02:10:21.774Z,1.89
2023-12-21T02:12:50.153Z,2.05
2023-12-21T02:15:18.353Z,2.00
2023-12-21T02:17:50.666Z,2.12
2023-12-21T02:20:20.384Z,1.93
2023-12-21T02:22:51.530Z,2.00
2023-12-21T02:25:21.525Z,2.09
2023-12-21T02:27:51.288Z,2.05
2023-12-21T02:30:19.968Z,2.17
2023-12-21T02:32:48.366Z,2.25
2023-12-21T02:35:17.111Z,2.17
2023-12-21T02:37:45.110Z,1.92
2023-12-21T02:40:14.187Z,2.13
2023-12-21T02:42:43.597Z,1.98
2023-12-21T02:45:11.835Z,2.80
2023-12-21T02:47:39.816Z,2.56
2023-12-21T02:50:09.135Z,3.28
2023-12-21T02:52:37.361Z,2.63
2023-12-21T02:55:05.741Z,2.33
2023-12-21T02:57:33.756Z,1.92
2023-12-21T03:00:03.263Z,1.97
2023-12-21T03:02:31.223Z,2.00
2023-12-21T03:04:59.210Z,2.15
2023-12-21T03:07:27.213Z,2.34
2023-12-21T03:09:55.164Z,2.69
2023-12-21T03:12:23.873Z,2.55
2023-12-21T03:14:51.789Z,2.77
2023-12-21T03:17:21.105Z,2.52
2023-12-21T03:19:49.211Z,2.69
2023-12-21T03:22:17.302Z,2.49
2023-12-21T03:24:46.251Z,2.87
2023-12-21T03:27:15.377Z,2.90
2023-12-21T03:29:43.562Z,3.13
2023-12-21T03:32:11.601Z,3.19
2023-12-21T03:34:41.528Z,2.76
2023-12-21T03:37:09.613Z,2.83
2023-12-21T03:39:37.556Z,2.95
2023-12-21T03:42:06.255Z,2.65
2023-12-21T03:44:34.190Z,2.89
2023-12-21T03:47:02.509Z,3.00
2023-12-21T03:49:30.920Z,2.70
2023-12-21T03:52:01.066Z,2.62
2023-12-21T03:54:29.040Z,2.87
2023-12-21T03:56:57.004Z,2.66
2023-12-21T03:59:24.962Z,2.58
2023-12-21T04:01:53.640Z,2.59
2023-12-21T04:04:21.615Z,2.37
2023-12-21T04:06:49.550Z,2.42
2023-12-21T04:09:18.816Z,2.55
2023-12-21T04:11:46.788Z,2.31
2023-12-21T04:14:14.705Z,2.39
2023-12-21T04:16:42.730Z,2.30
2023-12-21T04:19:10.895Z,2.21
2023-12-21T04:21:38.926Z,1.87
2023-12-21T04:24:08.550Z,2.07
2023-12-21T04:26:38.382Z,1.88
2023-12-21T04:29:06.306Z,1.86
2023-12-21T04:31:34.425Z,1.91
2023-12-21T04:34:02.636Z,1.94
2023-12-21T04:36:30.713Z,1.87
2023-12-21T04:38:58.685Z,1.86
2023-12-21T04:41:26.616Z,1.75
2023-12-21T04:43:55.912Z,1.81
2023-12-21T04:46:24.003Z,1.75
2023-12-21T04:48:52.037Z,1.68
2023-12-21T04:51:20.448Z,1.74
2023-12-21T04:53:48.396Z,4.53
2023-12-21T04:56:16.824Z,5.31
2023-12-21T04:58:52.228Z,3.68
2023-12-21T05:01:21.815Z,2.23
2023-12-21T05:03:49.830Z,3.11
2023-12-21T05:06:17.915Z,2.94
2023-12-21T05:08:45.897Z,2.91
2023-12-21T05:11:13.925Z,2.40
2023-12-21T05:13:42.184Z,2.27
2023-12-21T05:16:10.282Z,2.05
2023-12-21T05:18:39.860Z,2.41
2023-12-21T05:21:09.569Z,2.05
2023-12-21T05:23:37.738Z,1.82
2023-12-21T05:26:13.109Z,1.98
2023-12-21T05:28:43.178Z,2.21
2023-12-21T05:31:12.040Z,2.79
2023-12-21T05:33:41.512Z,2.46
2023-12-21T05:36:09.641Z,2.13
2023-12-21T05:38:39.166Z,2.17
2023-12-21T05:41:07.144Z,2.46
2023-12-21T05:43:35.124Z,1.98
2023-12-21T05:46:03.115Z,2.71
2023-12-21T05:48:31.213Z,2.75
2023-12-21T05:51:00.738Z,2.45
2023-12-21T05:53:31.292Z,2.27
2023-12-21T05:55:59.239Z,2.02
2023-12-21T05:58:27.484Z,1.85
2023-12-21T06:00:55.744Z,2.05
2023-12-21T06:03:24.675Z,2.81
2023-12-21T06:05:53.098Z,3.15
2023-12-21T06:08:22.386Z,2.75
2023-12-21T06:10:50.446Z,2.75
2023-12-21T06:13:18.440Z,2.67
2023-12-21T06:15:49.130Z,2.71
2023-12-21T06:18:17.151Z,2.61
2023-12-21T06:20:45.146Z,2.55
2023-12-21T06:23:13.093Z,2.43
2023-12-21T06:25:44.957Z,2.67
2023-12-21T06:28:13.026Z,2.74
2023-12-21T06:30:41.018Z,1.95
2023-12-21T06:33:09.109Z,1.99
2023-12-21T06:35:37.967Z,1.93
2023-12-21T06:38:07.748Z,2.08
2023-12-21T06:40:35.752Z,2.19
2023-12-21T06:43:05.400Z,1.70
2023-12-21T06:45:33.413Z,2.50
2023-12-21T06:48:01.952Z,1.70
2023-12-21T06:50:32.582Z,2.18
2023-12-21T06:53:04.493Z,2.35
2023-12-21T06:55:32.494Z,3.89
2023-12-21T06:58:00.492Z,3.88
2023-12-21T07:00:30.123Z,2.78
2023-12-21T07:02:58.191Z,2.33
2023-12-21T07:05:26.350Z,3.29
2023-12-21T07:07:55.198Z,2.10
2023-12-21T07:10:23.273Z,2.09
2023-12-21T07:12:51.227Z,2.04
2023-12-21T07:15:20.059Z,2.37
2023-12-21T07:17:49.499Z,1.94
2023-12-21T07:20:21.507Z,1.78
2023-12-21T07:22:53.583Z,1.72
2023-12-21T07:25:21.584Z,1.54
2023-12-21T07:27:49.572Z,1.52
2023-12-21T07:30:17.923Z,1.50
2023-12-21T07:32:46.102Z,1.60
2023-12-21T07:35:16.424Z,1.96
2023-12-21T07:37:44.500Z,1.95
2023-12-21T07:40:13.858Z,1.44
2023-12-21T07:42:41.833Z,1.59
2023-12-21T07:45:10.585Z,1.52
2023-12-21T07:47:40.909Z,1.75
2023-12-21T07:50:09.741Z,2.18
2023-12-21T07:52:39.203Z,1.94
2023-12-21T07:55:08.491Z,1.65
2023-12-21T07:57:36.509Z,1.86
2023-12-21T08:00:05.743Z,1.87
2023-12-21T08:02:33.623Z,2.09
2023-12-21T08:05:01.619Z,2.55
2023-12-21T08:07:29.627Z,1.93
2023-12-21T08:10:03.071Z,2.05
2023-12-21T08:12:31.226Z,2.26
2023-12-21T08:14:58.173Z,2.35
2023-12-21T08:17:26.161Z,2.66
2023-12-21T08:19:54.242Z,2.48
2023-12-21T08:22:23.916Z,2.63
2023-12-21T08:24:52.634Z,2.33
2023-12-21T08:27:22.644Z,2.37
2023-12-21T08:29:50.645Z,2.37
2023-12-21T08:32:19.474Z,2.21
2023-12-21T08:34:47.512Z,2.16
2023-12-21T08:37:15.509Z,2.36
2023-12-21T08:39:43.497Z,2.23
2023-12-21T08:42:11.471Z,2.43
2023-12-21T08:44:40.840Z,2.42
2023-12-21T08:47:11.849Z,2.24
2023-12-21T08:49:39.914Z,2.32
2023-12-21T08:52:08.202Z,1.85
2023-12-21T08:54:36.182Z,2.10
2023-12-21T08:57:04.783Z,2.04
2023-12-21T08:59:32.751Z,2.08
2023-12-21T09:02:02.433Z,1.93
2023-12-21T09:04:30.453Z,1.84
2023-12-21T09:06:58.600Z,1.88
2023-12-21T09:09:26.594Z,1.62
2023-12-21T09:11:54.516Z,1.69
2023-12-21T09:14:23.731Z,1.78
2023-12-21T09:16:52.762Z,1.62
2023-12-21T09:19:22.440Z,1.72
2023-12-21T09:21:50.476Z,1.61
2023-12-21T09:24:18.452Z,1.46
2023-12-21T09:26:46.364Z,1.43
2023-12-21T09:29:14.315Z,1.41
2023-12-21T09:31:45.046Z,1.57
2023-12-21T09:34:12.758Z,1.27
2023-12-21T09:36:42.109Z,1.63
2023-12-21T09:39:12.733Z,1.50
2023-12-21T09:41:49.555Z,1.42
2023-12-21T09:44:29.689Z,1.66
2023-12-21T09:46:59.149Z,1.51
2023-12-21T09:49:29.000Z,1.80
2023-12-21T09:52:00.158Z,1.70
2023-12-21T09:54:28.454Z,1.49
2023-12-21T09:56:58.252Z,4.33
2023-12-21T09:59:31.509Z,2.47
2023-12-21T10:01:59.557Z,2.51
2023-12-21T10:04:27.981Z,1.89
2023-12-21T10:06:56.016Z,1.58
2023-12-21T10:09:26.236Z,1.23
2023-12-21T10:11:54.148Z,1.02
2023-12-21T10:14:22.551Z,1.22
2023-12-21T10:16:51.056Z,1.27
2023-12-21T10:19:19.195Z,1.37
2023-12-21T10:21:50.316Z,1.17
2023-12-21T10:24:21.384Z,1.11
2023-12-21T10:26:52.807Z,0.98
2023-12-21T10:29:21.378Z,0.99
2023-12-21T10:31:52.290Z,1.36
2023-12-21T10:34:20.877Z,1.19
2023-12-21T10:36:51.232Z,1.22
2023-12-21T10:39:19.913Z,1.17
2023-12-21T10:41:47.927Z,1.02
2023-12-21T10:44:17.754Z,0.76
2023-12-21T10:46:46.632Z,1.03
2023-12-21T10:49:15.068Z,1.19
2023-12-21T10:51:45.036Z,1.12
2023-12-21T10:54:18.123Z,1.22
2023-12-21T10:56:50.785Z,1.99
2023-12-21T10:59:22.371Z,1.91
2023-12-21T11:01:51.311Z,1.53
2023-12-21T11:04:22.536Z,1.20
2023-12-21T11:06:51.707Z,1.37
2023-12-21T11:09:21.164Z,1.23
2023-12-21T11:11:49.706Z,1.04
2023-12-21T11:14:18.558Z,0.88
2023-12-21T11:16:54.865Z,1.17
2023-12-21T11:19:31.567Z,0.96
2023-12-21T11:22:00.240Z,0.90
2023-12-21T11:24:28.373Z,1.10
2023-12-21T11:27:00.489Z,0.93
2023-12-21T11:29:30.003Z,1.03
2023-12-21T11:32:01.713Z,1.18
2023-12-21T11:34:38.240Z,1.09
2023-12-21T11:37:18.560Z,1.06
2023-12-21T11:39:47.579Z,1.14
2023-12-21T11:42:15.532Z,0.92
2023-12-21T11:44:51.924Z,1.13
2023-12-21T11:47:21.413Z,2.72
2023-12-21T11:49:49.715Z,1.31
2023-12-21T11:52:27.201Z,1.13
2023-12-21T11:54:55.367Z,1.27
2023-12-21T11:57:23.477Z,1.15
2023-12-21T12:00:07.034Z,1.38
2023-12-21T12:02:36.948Z,1.26
2023-12-21T12:05:05.616Z,1.11
2023-12-21T12:07:37.726Z,1.25
2023-12-21T12:10:06.261Z,1.15
2023-12-21T12:12:37.240Z,1.01
2023-12-21T12:15:05.871Z,1.70
2023-12-21T12:17:33.894Z,2.17
2023-12-21T12:20:04.065Z,1.91
2023-12-21T12:22:35.570Z,1.96
2023-12-21T12:25:04.106Z,1.33
2023-12-21T12:27:32.694Z,1.94
2023-12-21T12:30:01.495Z,1.33
2023-12-21T12:32:35.654Z,1.53
2023-12-21T12:35:08.152Z,1.16
2023-12-21T12:37:37.350Z,0.95
2023-12-21T12:40:08.581Z,1.16
2023-12-21T12:42:37.336Z,1.27
2023-12-21T12:45:07.123Z,1.31
2023-12-21T12:47:36.466Z,0.99
2023-12-21T12:50:07.382Z,1.02
2023-12-21T12:52:41.348Z,1.05
2023-12-21T12:55:10.590Z,1.41
2023-12-21T12:57:39.359Z,1.54
2023-12-21T13:00:11.762Z,2.18
2023-12-21T13:02:40.036Z,3.80
2023-12-21T13:05:11.509Z,5.16
2023-12-21T13:07:40.413Z,4.31
2023-12-21T13:10:10.652Z,3.67
2023-12-21T13:12:38.847Z,3.33
2023-12-21T13:15:08.191Z,2.55
2023-12-21T13:17:36.462Z,2.52
2023-12-21T13:20:10.721Z,2.11
2023-12-21T13:22:47.815Z,1.69
2023-12-21T13:25:18.160Z,2.51
2023-12-21T13:27:46.617Z,2.46
2023-12-21T13:30:15.456Z,1.32
2023-12-21T13:32:46.338Z,0.84
2023-12-21T13:35:16.634Z,0.77
2023-12-21T13:37:47.602Z,0.65
2023-12-21T13:40:16.003Z,0.53
2023-12-21T13:42:45.937Z,0.77
2023-12-21T13:45:14.039Z,1.01
2023-12-21T13:47:44.990Z,1.76
2023-12-21T13:50:15.842Z,1.60
2023-12-21T13:52:45.311Z,1.43
2023-12-21T13:55:13.607Z,1.19
2023-12-21T13:57:41.728Z,0.75
2023-12-21T14:00:11.896Z,0.80
2023-12-21T14:02:39.906Z,0.93
2023-12-21T14:05:08.687Z,0.71
2023-12-21T14:07:36.882Z,0.68
2023-12-21T14:10:09.621Z,0.86
2023-12-21T14:12:37.757Z,1.79
2023-12-21T14:15:09.062Z,1.95
2023-12-21T14:17:37.188Z,2.31
2023-12-21T14:20:05.754Z,1.62
2023-12-21T14:22:33.869Z,1.46
2023-12-21T14:25:01.860Z,1.55
2023-12-21T14:27:31.252Z,1.47
2023-12-21T14:29:59.311Z,1.52
2023-12-21T14:32:27.804Z,2.32
2023-12-21T14:34:56.138Z,1.15
2023-12-21T14:37:24.238Z,1.71
2023-12-21T14:39:54.066Z,1.23
2023-12-21T14:42:22.262Z,1.63
2023-12-21T14:44:53.728Z,1.90
2023-12-21T14:47:22.086Z,1.95
2023-12-21T14:49:50.558Z,1.49
2023-12-21T14:52:18.600Z,1.21
2023-12-21T14:54:46.902Z,0.94
2023-12-21T14:57:14.950Z,0.75
2023-12-21T14:59:42.952Z,1.12
2023-12-21T15:02:12.323Z,1.26
2023-12-21T15:04:40.486Z,1.10
2023-12-21T15:07:08.801Z,1.16
2023-12-21T15:09:38.368Z,0.72
2023-12-21T15:12:06.991Z,0.50
2023-12-21T15:14:35.026Z,0.44
2023-12-21T15:17:03.623Z,0.80
2023-12-21T15:19:33.123Z,0.59
2023-12-21T15:22:01.840Z,0.53
2023-12-21T15:24:31.147Z,0.47
2023-12-21T15:27:00.278Z,0.54
2023-12-21T15:29:31.302Z,0.35
2023-12-21T15:31:59.312Z,0.44
2023-12-21T15:34:27.496Z,0.75
2023-12-21T15:36:56.882Z,0.58
2023-12-21T15:39:24.988Z,0.52
2023-12-21T15:41:53.086Z,0.72
2023-12-21T15:44:21.243Z,0.72
2023-12-21T15:46:49.283Z,0.47
2023-12-21T15:49:17.452Z,0.57
2023-12-21T15:51:45.386Z,1.01
2023-12-21T15:54:15.382Z,0.78
2023-12-21T15:56:43.753Z,0.66
2023-12-21T15:59:14.691Z,0.80
2023-12-21T16:01:43.210Z,1.00
2023-12-21T16:04:18.663Z,0.79
2023-12-21T16:06:46.619Z,0.51
2023-12-21T16:09:16.304Z,0.70
2023-12-21T16:11:44.244Z,0.89
2023-12-21T16:14:12.272Z,1.91
2023-12-21T16:16:40.353Z,0.52
2023-12-21T16:19:08.392Z,0.71
2023-12-21T16:21:36.423Z,0.95
2023-12-21T16:24:07.786Z,0.78
2023-12-21T16:26:41.634Z,0.74
2023-12-21T16:29:09.824Z,0.87
2023-12-21T16:31:38.418Z,0.80
2023-12-21T16:34:07.496Z,0.72
2023-12-21T16:36:35.447Z,0.80
2023-12-21T16:39:04.629Z,0.75
2023-12-21T16:41:32.535Z,0.96
2023-12-21T16:44:01.922Z,1.15
2023-12-21T16:46:30.170Z,0.99
2023-12-21T16:48:58.200Z,1.23
2023-12-21T16:51:27.308Z,2.05
2023-12-21T16:53:55.264Z,3.16
2023-12-21T16:56:23.305Z,3.22
2023-12-21T16:58:51.791Z,3.16
2023-12-21T17:01:21.293Z,3.03
2023-12-21T17:03:52.391Z,1.62
2023-12-21T17:06:21.374Z,1.79
2023-12-21T17:08:49.374Z,1.28
2023-12-21T17:11:17.373Z,1.96
2023-12-21T17:13:45.485Z,2.73
2023-12-21T17:16:15.255Z,2.20
2023-12-21T17:18:44.664Z,0.84
2023-12-21T17:21:12.603Z,0.96
2023-12-21T17:23:40.600Z,0.96
2023-12-21T17:26:11.773Z,0.97
2023-12-21T17:28:41.677Z,1.16
2023-12-21T17:31:10.291Z,1.27
2023-12-21T17:33:38.377Z,1.29
2023-12-21T17:36:08.153Z,1.01
2023-12-21T17:38:36.376Z,0.79
2023-12-21T17:41:04.341Z,1.33
2023-12-21T17:43:32.393Z,2.08
2023-12-21T17:46:02.397Z,1.53
2023-12-21T17:48:30.434Z,1.31
2023-12-21T17:50:58.439Z,1.34
2023-12-21T17:53:27.938Z,1.59
2023-12-21T17:55:57.980Z,0.95
2023-12-21T17:58:25.990Z,0.87
2023-12-21T18:00:54.296Z,1.02
2023-12-21T18:03:23.878Z,1.07
2023-12-21T18:05:53.187Z,1.07
2023-12-21T18:08:21.252Z,1.40
2023-12-21T18:10:50.759Z,1.30
2023-12-21T18:13:19.065Z,1.35
2023-12-21T18:15:47.514Z,1.14
2023-12-21T18:18:17.785Z,1.06
2023-12-21T18:20:45.925Z,1.11
2023-12-21T18:23:15.892Z,1.36
2023-12-21T18:25:45.055Z,1.23
2023-12-21T18:28:14.478Z,1.21
2023-12-21T18:30:42.448Z,1.07
2023-12-21T18:33:10.475Z,1.26
2023-12-21T18:35:38.896Z,1.36
2023-12-21T18:38:06.901Z,1.03
2023-12-21T18:40:34.887Z,1.17
2023-12-21T18:43:04.105Z,1.14
2023-12-21T18:45:33.383Z,1.46
2023-12-21T18:48:04.002Z,1.64
2023-12-21T18:50:32.169Z,1.62
2023-12-21T18:53:00.862Z,1.73
2023-12-21T18:55:28.910Z,1.60
2023-12-21T18:57:56.927Z,1.40
2023-12-21T19:00:24.877Z,1.36
2023-12-21T19:02:54.225Z,1.27
2023-12-21T19:05:22.568Z,1.50
2023-12-21T19:07:51.077Z,1.35
2023-12-21T19:10:19.442Z,1.45
2023-12-21T19:12:47.639Z,1.34
2023-12-21T19:15:15.730Z,1.78
2023-12-21T19:17:44.208Z,1.25
2023-12-21T19:20:14.844Z,1.14
2023-12-21T19:22:43.090Z,1.54
2023-12-21T19:25:13.346Z,1.78
2023-12-21T19:27:41.412Z,1.78
2023-12-21T19:30:11.211Z,1.94
2023-12-21T19:32:39.271Z,1.52
2023-12-21T19:35:07.501Z,1.60
2023-12-21T19:37:36.805Z,1.42
2023-12-21T19:40:05.258Z,1.43
2023-12-21T19:42:33.217Z,2.39
2023-12-21T19:45:01.254Z,2.11
2023-12-21T19:47:29.256Z,0.71
2023-12-21T19:49:57.366Z,0.81
2023-12-21T19:52:25.388Z,0.87
2023-12-21T19:54:54.753Z,0.95
2023-12-21T19:57:22.730Z,0.95
2023-12-21T19:59:50.707Z,0.95
2023-12-21T20:02:18.675Z,1.22
2023-12-21T20:04:47.102Z,1.21
2023-12-21T20:07:15.199Z,1.33
2023-12-21T20:09:43.288Z,1.42
2023-12-21T20:12:12.656Z,1.34
2023-12-21T20:14:40.740Z,1.19
2023-12-21T20:17:08.707Z,0.98
2023-12-21T20:19:36.731Z,1.13
2023-12-21T20:22:04.802Z,1.76
2023-12-21T20:24:32.754Z,1.72
2023-12-21T20:27:00.638Z,1.79
2023-12-21T20:29:30.071Z,1.34
2023-12-21T20:31:58.069Z,1.73
2023-12-21T20:34:26.088Z,1.54
2023-12-21T20:36:54.072Z,1.55
2023-12-21T20:39:22.276Z,1.57
2023-12-21T20:41:52.668Z,1.40
2023-12-21T20:44:21.046Z,1.57
2023-12-21T20:46:50.444Z,1.44
2023-12-21T20:49:18.489Z,1.46
2023-12-21T20:51:46.485Z,1.16
2023-12-21T20:54:14.589Z,1.34
2023-12-21T20:56:42.526Z,1.42
2023-12-21T20:59:10.655Z,1.52
2023-12-21T21:01:40.587Z,1.30
2023-12-21T21:04:09.987Z,1.43
2023-12-21T21:06:38.055Z,1.39
2023-12-21T21:09:09.997Z,1.58
2023-12-21T21:11:38.348Z,1.73
2023-12-21T21:14:06.377Z,1.99
2023-12-21T21:16:34.453Z,1.81
2023-12-21T21:19:02.688Z,1.56
2023-12-21T21:21:32.098Z,1.21
2023-12-21T21:24:03.332Z,1.14
2023-12-21T21:26:31.893Z,1.32
2023-12-21T21:29:03.324Z,1.36
2023-12-21T21:31:31.333Z,1.32
2023-12-21T21:33:59.356Z,1.19
2023-12-21T21:36:27.336Z,1.24
2023-12-21T21:38:56.665Z,1.29
2023-12-21T21:41:24.616Z,1.26
2023-12-21T21:43:52.740Z,1.50
2023-12-21T21:46:20.845Z,1.55
2023-12-21T21:48:48.961Z,1.47
2023-12-21T21:51:18.361Z,1.71
2023-12-21T21:53:46.636Z,1.70
2023-12-21T21:56:19.667Z,1.62
2023-12-21T21:58:47.890Z,1.49
2023-12-21T22:01:16.580Z,1.32
2023-12-21T22:03:44.603Z,0.97
2023-12-21T22:06:12.696Z,0.91
2023-12-21T22:08:40.717Z,1.00
2023-12-21T22:11:09.349Z,1.66
2023-12-21T22:13:38.729Z,1.82
2023-12-21T22:16:06.803Z,1.42
2023-12-21T22:18:34.984Z,1.21
2023-12-21T22:21:02.974Z,1.42
2023-12-21T22:23:31.148Z,0.83
2023-12-21T22:25:59.166Z,0.84
2023-12-21T22:28:27.142Z,0.58
2023-12-21T22:30:56.478Z,0.55
2023-12-21T22:33:24.518Z,0.51
2023-12-21T22:35:52.498Z,0.51
2023-12-21T22:38:20.630Z,0.54
2023-12-21T22:40:48.791Z,0.64
2023-12-21T22:43:29.511Z,0.72
2023-12-21T22:46:06.977Z,0.73
2023-12-21T22:48:35.076Z,0.77
2023-12-21T22:51:03.118Z,0.97
2023-12-21T22:53:32.594Z,0.93
2023-12-21T22:56:00.962Z,0.85
2023-12-21T22:58:29.053Z,0.77
2023-12-21T23:00:57.247Z,0.75
2023-12-21T23:03:26.770Z,0.68
2023-12-21T23:05:54.916Z,0.71
2023-12-21T23:08:22.991Z,0.73
2023-12-21T23:10:53.112Z,0.66
2023-12-21T23:13:21.251Z,0.69
2023-12-21T23:15:49.090Z,0.89
2023-12-21T23:18:17.195Z,0.90
2023-12-21T23:20:46.642Z,0.99
2023-12-21T23:23:14.676Z,0.89
2023-12-21T23:25:42.933Z,0.90
2023-12-21T23:28:10.941Z,0.77
2023-12-21T23:30:38.912Z,0.82
2023-12-21T23:33:07.009Z,0.72
2023-12-21T23:35:35.133Z,0.84
2023-12-21T23:38:04.851Z,1.05
2023-12-21T23:40:32.878Z,0.86
2023-12-21T23:43:00.902Z,0.85
2023-12-21T23:45:28.822Z,1.02
2023-12-21T23:47:56.918Z,1.08
2023-12-21T23:50:24.948Z,1.42
2023-12-21T23:52:53.079Z,1.31
2023-12-21T23:55:22.509Z,1.47
2023-12-21T23:57:50.767Z,1.38
